Time;durP1;ratioP1;P1;durP2;ratioP2;P2;SDS_P1;SDS_P2;PMS_P1;PMS_P2;Temp;Humidity;BMP_temperature;BMP_pressure;BME280_temperature;BME280_humidity;BME280_pressure;Samples;Min_cycle;Max_cycle;Signal;HPM_P1;HPM_P2
2022/08/19 00:01:42;;;;;;;21.13;10.93;;;21.60;85.40;;;;;;5089017;28;20482;-67
2022/08/19 00:04:11;;;;;;;17.02;12.45;;;21.60;85.40;;;;;;5089977;28;20524;-66
2022/08/19 00:06:38;;;;;;;21.70;11.88;;;21.60;85.40;;;;;;5089548;28;20106;-67
2022/08/19 00:09:07;;;;;;;19.10;11.68;;;21.60;85.50;;;;;;5064357;28;20422;-67
2022/08/19 00:11:34;;;;;;;20.98;13.00;;;21.60;85.50;;;;;;5070963;28;20029;-67
2022/08/19 00:14:00;;;;;;;22.83;13.07;;;21.60;85.50;;;;;;5069535;28;20056;-67
2022/08/19 00:16:26;;;;;;;19.13;13.27;;;21.60;85.50;;;;;;5069258;28;20134;-67
2022/08/19 00:18:53;;;;;;;23.48;12.82;;;21.60;85.50;;;;;;5069696;28;20465;-66
2022/08/19 00:21:18;;;;;;;18.65;12.93;;;21.60;85.50;;;;;;5069207;28;20025;-66
2022/08/19 00:23:44;;;;;;;18.95;13.50;;;21.50;85.40;;;;;;5069610;28;20370;-67
2022/08/19 00:26:10;;;;;;;21.45;13.18;;;21.60;85.60;;;;;;5069272;28;20492;-67
2022/08/19 00:28:36;;;;;;;24.98;14.07;;;21.50;85.50;;;;;;5051198;28;20070;-67
2022/08/19 00:31:04;;;;;;;19.63;13.05;;;21.60;85.50;;;;;;5068925;28;20020;-67
2022/08/19 00:33:34;;;;;;;20.55;12.93;;;21.50;85.50;;;;;;5070098;28;20013;-67
2022/08/19 00:36:00;;;;;;;22.58;13.60;;;21.60;85.60;;;;;;5069679;28;20028;-66
2022/08/19 00:38:26;;;;;;;24.23;13.57;;;21.50;85.60;;;;;;5069437;28;20099;-67
2022/08/19 00:40:52;;;;;;;23.75;13.50;;;21.50;85.60;;;;;;5070570;28;20100;-67
2022/08/19 00:43:23;;;;;;;24.00;14.32;;;21.50;85.60;;;;;;5071845;28;20036;-67
2022/08/19 00:45:49;;;;;;;19.50;12.93;;;21.50;85.60;;;;;;5073296;28;20026;-67
2022/08/19 00:48:17;;;;;;;18.80;12.35;;;21.50;85.60;;;;;;5073012;28;20027;-67
2022/08/19 00:50:44;;;;;;;18.45;12.80;;;21.50;85.60;;;;;;5072434;28;20066;-68
2022/08/19 00:53:11;;;;;;;19.10;13.70;;;21.50;85.60;;;;;;5072876;28;20033;-68
2022/08/19 00:55:38;;;;;;;26.40;14.65;;;21.50;85.60;;;;;;5054724;28;20044;-70
2022/08/19 00:58:09;;;;;;;26.92;14.68;;;21.50;85.60;;;;;;5053342;28;20155;-68
2022/08/19 01:00:37;;;;;;;19.73;13.23;;;21.50;85.60;;;;;;5063920;28;20036;-67
2022/08/19 01:03:12;;;;;;;23.50;13.57;;;21.50;85.70;;;;;;5054883;28;20016;-67
2022/08/19 01:05:43;;;;;;;22.40;13.65;;;21.50;85.60;;;;;;5065585;28;20021;-67
2022/08/19 01:08:09;;;;;;;27.38;15.07;;;21.50;85.60;;;;;;5054958;28;20024;-67
2022/08/19 01:10:41;;;;;;;24.15;15.13;;;21.50;85.70;;;;;;5065859;28;20046;-67
2022/08/19 01:13:07;;;;;;;27.27;14.05;;;21.50;85.70;;;;;;5070601;28;20016;-67
2022/08/19 01:15:39;;;;;;;20.92;14.18;;;21.50;85.80;;;;;;5071193;28;20385;-67
2022/08/19 01:18:09;;;;;;;21.02;13.43;;;21.50;85.70;;;;;;5072992;28;20457;-67
2022/08/19 01:20:35;;;;;;;23.95;14.80;;;21.40;85.60;;;;;;5064322;28;20440;-67
2022/08/19 01:23:01;;;;;;;22.98;13.63;;;21.50;85.70;;;;;;5073020;28;20052;-67
2022/08/19 01:25:39;;;;;;;22.58;14.88;;;21.40;85.70;;;;;;5072915;28;20393;-67
2022/08/19 01:28:04;;;;;;;22.25;14.30;;;21.40;85.70;;;;;;5053701;28;20033;-67
2022/08/19 01:30:35;;;;;;;22.25;13.73;;;21.40;85.60;;;;;;5071898;28;20074;-67
2022/08/19 01:33:04;;;;;;;24.65;13.88;;;21.40;85.70;;;;;;5072606;28;20031;-67
2022/08/19 01:35:32;;;;;;;24.83;14.60;;;21.40;85.70;;;;;;5071372;28;20553;-67
2022/08/19 01:38:07;;;;;;;22.75;14.27;;;21.40;85.70;;;;;;5072021;28;20021;-67
2022/08/19 01:40:36;;;;;;;28.58;14.77;;;21.40;85.70;;;;;;5071603;28;20029;-67
2022/08/19 01:43:02;;;;;;;24.80;14.80;;;21.40;85.70;;;;;;5071346;28;20107;-67
2022/08/19 01:45:30;;;;;;;21.52;13.23;;;21.40;85.70;;;;;;5072399;28;20016;-67
2022/08/19 01:47:56;;;;;;;25.73;14.52;;;21.40;85.70;;;;;;5054526;28;20016;-67
2022/08/19 01:50:22;;;;;;;24.40;14.55;;;21.40;85.70;;;;;;5072944;28;20024;-67
2022/08/19 01:52:48;;;;;;;25.30;14.50;;;21.40;85.70;;;;;;5072197;28;20398;-67
2022/08/19 01:55:17;;;;;;;20.85;13.95;;;21.40;85.80;;;;;;5055974;28;20101;-67
2022/08/19 01:57:46;;;;;;;26.15;14.80;;;21.40;86.50;;;;;;5051324;28;20375;-67
2022/08/19 02:00:16;;;;;;;26.25;14.43;;;21.40;85.80;;;;;;5071852;28;20041;-66
2022/08/19 02:02:42;;;;;;;25.92;14.93;;;21.40;85.70;;;;;;5063868;28;20016;-67
2022/08/19 02:05:08;;;;;;;28.58;15.85;;;21.40;85.80;;;;;;5053978;28;20024;-67
2022/08/19 02:07:35;;;;;;;26.02;15.50;;;21.40;85.80;;;;;;5072078;28;20286;-67
2022/08/19 02:10:07;;;;;;;27.30;16.30;;;21.40;85.80;;;;;;5071014;28;20073;-67
2022/08/19 02:22:45;;;;;;;22.38;13.75;;;21.40;85.80;;;;;;5072776;28;20073;-67
2022/08/19 02:25:13;;;;;;;25.25;15.43;;;21.40;85.80;;;;;;5072322;28;20027;-67
2022/08/19 02:27:40;;;;;;;23.88;14.50;;;21.40;85.80;;;;;;5067873;28;20028;-67
2022/08/19 02:30:08;;;;;;;23.42;14.20;;;21.40;85.80;;;;;;5062676;28;20378;-67
2022/08/19 02:32:33;;;;;;;25.08;14.85;;;21.40;85.90;;;;;;5071018;28;20477;-67
2022/08/19 02:34:59;;;;;;;24.17;15.07;;;21.30;85.80;;;;;;5052998;28;20025;-67
2022/08/19 02:40:09;;;;;;;26.20;15.73;;;21.30;85.80;;;;;;5071827;28;20059;-67
2022/08/19 02:42:35;;;;;;;24.38;14.85;;;21.30;85.80;;;;;;5071293;28;20469;-67
2022/08/19 02:45:01;;;;;;;29.30;15.95;;;21.30;85.90;;;;;;5070781;28;20249;-66
2022/08/19 02:47:26;;;;;;;24.00;15.25;;;21.30;85.90;;;;;;5052738;28;20024;-67
2022/08/19 02:49:52;;;;;;;27.15;14.50;;;21.30;85.80;;;;;;5069853;28;20028;-67
2022/08/19 02:52:17;;;;;;;24.13;14.27;;;21.30;85.80;;;;;;5070841;28;20028;-67
2022/08/19 02:54:43;;;;;;;24.08;14.82;;;21.30;85.80;;;;;;5071008;28;20024;-67
2022/08/19 02:57:09;;;;;;;22.00;13.82;;;21.30;85.90;;;;;;5053103;28;20021;-67
2022/08/19 02:59:35;;;;;;;24.98;15.52;;;21.30;85.80;;;;;;5066757;28;20037;-68
2022/08/19 03:02:01;;;;;;;25.63;15.32;;;21.30;86.70;;;;;;5070038;28;20027;-68
2022/08/19 03:04:27;;;;;;;27.80;16.20;;;21.30;85.90;;;;;;5068725;28;20093;-67
2022/08/19 03:06:52;;;;;;;32.30;16.70;;;21.30;85.90;;;;;;5052493;28;20115;-67
2022/08/19 03:09:19;;;;;;;28.77;15.93;;;21.30;85.90;;;;;;5050203;28;20111;-67
2022/08/19 03:11:45;;;;;;;24.35;15.50;;;21.30;85.90;;;;;;5088039;28;20035;-67
2022/08/19 03:14:12;;;;;;;25.88;15.93;;;21.30;85.90;;;;;;5084319;28;20033;-67
2022/08/19 03:16:57;;;;;;;25.40;15.45;;;21.30;86.00;;;;;;5063785;28;20021;-67
2022/08/19 03:19:22;;;;;;;27.95;15.18;;;21.30;85.90;;;;;;5082474;28;20044;-67
2022/08/19 03:21:49;;;;;;;31.00;17.27;;;21.30;85.90;;;;;;5078925;28;20142;-67
2022/08/19 03:24:17;;;;;;;25.35;14.63;;;21.30;85.90;;;;;;5079076;28;20020;-67
2022/08/19 03:26:48;;;;;;;28.90;15.75;;;21.30;86.10;;;;;;5081090;28;20017;-67
2022/08/19 03:29:15;;;;;;;27.98;15.93;;;21.20;85.90;;;;;;5087570;28;20031;-67
2022/08/19 03:31:43;;;;;;;28.77;16.40;;;21.20;85.90;;;;;;5088178;28;20549;-67
2022/08/19 03:34:15;;;;;;;25.85;14.90;;;21.20;85.90;;;;;;5066871;28;20455;-67
2022/08/19 03:36:40;;;;;;;34.20;15.43;;;21.30;86.00;;;;;;5078300;28;20025;-67
2022/08/19 03:39:08;;;;;;;29.02;15.55;;;21.30;86.00;;;;;;5078558;28;20058;-67
2022/08/19 03:41:38;;;;;;;27.58;15.60;;;21.20;86.00;;;;;;5063044;28;20077;-67
2022/08/19 03:44:04;;;;;;;27.67;16.40;;;21.20;86.00;;;;;;5082070;28;20111;-67
2022/08/19 03:46:33;;;;;;;28.63;16.55;;;21.20;86.10;;;;;;5090038;28;20107;-67
2022/08/19 03:49:02;;;;;;;31.33;17.08;;;21.20;86.10;;;;;;5079527;28;20032;-67
2022/08/19 03:51:38;;;;;;;29.17;16.50;;;21.20;86.10;;;;;;5085490;28;20496;-67
2022/08/19 03:54:08;;;;;;;29.20;16.27;;;21.20;86.00;;;;;;5082988;28;20108;-67
2022/08/19 03:56:35;;;;;;;25.45;14.85;;;21.20;86.00;;;;;;5081417;28;20040;-67
2022/08/19 03:59:02;;;;;;;28.60;16.40;;;21.20;86.00;;;;;;5077884;28;20044;-67
2022/08/19 04:01:29;;;;;;;32.38;17.58;;;21.20;86.00;;;;;;5067302;28;20056;-67
2022/08/19 04:03:58;;;;;;;36.65;17.42;;;21.20;86.00;;;;;;5080624;28;20047;-67
2022/08/19 04:06:35;;;;;;;30.00;17.08;;;21.20;86.00;;;;;;5081891;28;20117;-67
2022/08/19 04:09:05;;;;;;;30.88;18.33;;;21.20;86.00;;;;;;5082038;28;20052;-67
2022/08/19 04:11:41;;;;;;;31.70;18.67;;;21.20;86.00;;;;;;5072728;28;20040;-68
2022/08/19 04:14:07;;;;;;;32.58;17.73;;;21.20;86.10;;;;;;5060820;28;20021;-67
2022/08/19 04:16:33;;;;;;;34.50;18.15;;;21.20;86.00;;;;;;5051461;28;20112;-67
2022/08/19 04:19:01;;;;;;;37.83;18.77;;;21.20;86.10;;;;;;5052145;28;20064;-67
2022/08/19 04:21:27;;;;;;;36.40;18.70;;;21.20;86.10;;;;;;5064108;28;20024;-67
2022/08/19 04:23:54;;;;;;;32.00;17.75;;;21.20;86.10;;;;;;5069730;28;20052;-67
2022/08/19 04:26:31;;;;;;;34.70;20.08;;;21.20;86.10;;;;;;5069585;28;20020;-67
2022/08/19 04:32:19;;;;;;;29.80;16.63;;;21.20;86.10;;;;;;5094011;22;20052;-66
2022/08/19 04:34:45;;;;;;;34.92;19.05;;;21.20;86.10;;;;;;5069344;28;20021;-66
2022/08/19 04:37:11;;;;;;;35.63;17.52;;;21.20;86.10;;;;;;5069898;28;20020;-66
2022/08/19 04:42:39;;;;;;;29.65;16.77;;;21.20;86.20;;;;;;5064387;28;20158;-66
2022/08/19 04:45:12;;;;;;;34.65;18.08;;;21.20;86.20;;;;;;5062390;28;20473;-67
2022/08/19 04:47:40;;;;;;;31.63;18.10;;;21.20;86.10;;;;;;5068951;28;20465;-66
2022/08/19 04:50:07;;;;;;;30.95;17.67;;;21.20;86.20;;;;;;5060696;28;20017;-66
2022/08/19 04:52:33;;;;;;;28.77;17.92;;;21.20;86.20;;;;;;5069344;28;20473;-66
2022/08/19 04:54:59;;;;;;;31.75;17.13;;;21.20;86.30;;;;;;5069413;28;20035;-66
2022/08/19 04:57:26;;;;;;;34.30;16.80;;;21.10;86.20;;;;;;5069030;28;20021;-66
2022/08/19 04:59:55;;;;;;;34.00;18.05;;;21.20;86.30;;;;;;5066357;28;20040;-66
2022/08/19 05:02:24;;;;;;;30.58;17.23;;;21.10;86.20;;;;;;5069149;28;20021;-66
2022/08/19 05:04:50;;;;;;;35.30;16.70;;;21.10;86.20;;;;;;5069015;28;20440;-66
2022/08/19 05:07:16;;;;;;;30.20;16.25;;;21.20;86.30;;;;;;5068985;28;20267;-66
2022/08/19 05:09:42;;;;;;;31.02;16.25;;;21.10;86.30;;;;;;5067876;28;20063;-66
2022/08/19 05:12:08;;;;;;;28.70;16.67;;;21.10;86.30;;;;;;5068768;28;20031;-66
2022/08/19 05:14:36;;;;;;;31.05;17.50;;;21.10;86.30;;;;;;5067348;28;20036;-66
2022/08/19 05:17:02;;;;;;;33.08;16.83;;;21.20;86.40;;;;;;5069086;28;20082;-66
2022/08/19 05:24:55;;;;;;;30.23;17.00;;;21.20;86.50;;;;;;5069510;28;20466;-66
2022/08/19 05:27:21;;;;;;;30.75;17.35;;;21.10;86.40;;;;;;5071361;28;20024;-66
2022/08/19 05:29:47;;;;;;;31.67;18.08;;;21.20;86.50;;;;;;5070430;28;20033;-66
2022/08/19 05:32:12;;;;;;;32.63;18.45;;;21.10;86.40;;;;;;5072406;28;20029;-66
2022/08/19 05:34:38;;;;;;;35.25;18.55;;;21.10;86.40;;;;;;5072376;28;20534;-66
2022/08/19 05:37:05;;;;;;;36.13;18.70;;;21.10;86.40;;;;;;5072845;28;20024;-66
2022/08/19 05:39:34;;;;;;;31.55;17.63;;;21.20;86.50;;;;;;5070830;28;20055;-66
2022/08/19 05:42:06;;;;;;;28.38;16.75;;;21.20;86.50;;;;;;5069853;28;20526;-66
2022/08/19 05:44:34;;;;;;;30.10;17.20;;;21.20;86.50;;;;;;5067317;28;20045;-66
2022/08/19 05:47:02;;;;;;;30.75;16.95;;;21.20;86.50;;;;;;5062374;28;20043;-66
2022/08/19 05:49:29;;;;;;;33.45;17.50;;;21.20;86.50;;;;;;5070737;28;20047;-66
2022/08/19 05:51:55;;;;;;;31.75;18.52;;;21.10;86.60;;;;;;5070838;28;20021;-66
2022/08/19 05:54:22;;;;;;;30.60;18.10;;;21.10;86.50;;;;;;5072404;28;20032;-66
2022/08/19 05:56:50;;;;;;;28.98;16.60;;;21.10;86.50;;;;;;5072488;28;20036;-66
2022/08/19 05:59:17;;;;;;;39.80;18.98;;;21.10;86.60;;;;;;5070512;28;20485;-67
2022/08/19 06:01:46;;;;;;;35.17;19.80;;;21.10;86.50;;;;;;5071397;28;20031;-67
2022/08/19 06:04:15;;;;;;;37.60;20.45;;;21.20;86.60;;;;;;5071908;28;20461;-67
2022/08/19 06:06:41;;;;;;;35.97;18.10;;;21.20;86.50;;;;;;5072418;28;20045;-67
2022/08/19 06:09:07;;;;;;;28.38;16.58;;;21.10;86.50;;;;;;5072094;28;20025;-67
2022/08/19 06:11:40;;;;;;;35.72;17.00;;;21.20;86.50;;;;;;5071186;28;20111;-67
2022/08/19 06:14:09;;;;;;;33.13;17.73;;;21.10;86.50;;;;;;5071392;28;20520;-67
2022/08/19 06:16:38;;;;;;;33.47;17.17;;;21.10;86.50;;;;;;5070131;28;20576;-67
2022/08/19 06:19:07;;;;;;;33.65;17.83;;;21.10;86.60;;;;;;5070964;28;20032;-67
2022/08/19 06:21:33;;;;;;;30.50;16.30;;;21.10;86.60;;;;;;5071546;28;20070;-67
2022/08/19 06:23:59;;;;;;;31.05;17.58;;;21.10;86.60;;;;;;5072488;28;20546;-67
2022/08/19 06:26:26;;;;;;;28.55;17.05;;;21.10;86.60;;;;;;5072057;28;20063;-67
2022/08/19 06:28:52;;;;;;;36.20;17.85;;;21.10;86.60;;;;;;5071858;28;20016;-67
2022/08/19 06:31:20;;;;;;;32.60;17.88;;;21.10;86.60;;;;;;5066285;28;20086;-67
2022/08/19 06:33:47;;;;;;;32.03;17.33;;;21.10;86.60;;;;;;5071382;28;20027;-67
2022/08/19 06:36:21;;;;;;;33.83;17.27;;;21.10;86.60;;;;;;5071286;28;20058;-67
2022/08/19 06:38:47;;;;;;;34.17;17.65;;;21.10;86.60;;;;;;5071953;28;20082;-66
2022/08/19 06:41:12;;;;;;;32.42;17.25;;;21.20;86.70;;;;;;5070446;28;20020;-67
2022/08/19 06:43:49;;;;;;;32.58;17.38;;;21.10;86.60;;;;;;5070852;28;20469;-66
2022/08/19 06:46:27;;;;;;;32.85;16.88;;;21.10;86.60;;;;;;5069908;28;20045;-67
2022/08/19 06:49:02;;;;;;;34.40;16.92;;;21.10;86.70;;;;;;5071454;28;20024;-67
2022/08/19 06:51:28;;;;;;;32.70;17.65;;;21.20;86.80;;;;;;5062715;28;20093;-67
2022/08/19 06:53:55;;;;;;;30.80;16.73;;;21.20;86.80;;;;;;5070837;28;20019;-67
2022/08/19 06:56:33;;;;;;;30.27;15.93;;;21.10;86.70;;;;;;5070616;28;20017;-67
2022/08/19 07:32:50;;;;;;;30.10;16.10;;;21.10;86.80;;;;;;5005310;28;20049;-67
2022/08/19 07:35:19;;;;;;;28.83;15.88;;;21.10;86.90;;;;;;5007153;28;20034;-67
2022/08/19 07:37:45;;;;;;;31.63;15.32;;;21.10;86.70;;;;;;5008047;28;20034;-67
2022/08/19 07:43:40;;;;;;;30.17;15.68;;;21.10;86.80;;;;;;5093738;28;20046;-67
2022/08/19 07:46:12;;;;;;;32.15;15.85;;;21.10;86.80;;;;;;5081146;28;20019;-67
2022/08/19 07:48:37;;;;;;;29.80;16.00;;;21.10;86.80;;;;;;5088530;28;20032;-67
2022/08/19 07:51:09;;;;;;;26.08;15.65;;;21.10;86.90;;;;;;5087562;28;20477;-67
2022/08/19 07:53:36;;;;;;;28.40;14.73;;;21.10;86.80;;;;;;5081824;28;20020;-67
2022/08/19 07:56:04;;;;;;;22.27;13.65;;;21.10;86.90;;;;;;5088139;28;20031;-67
2022/08/19 07:58:36;;;;;;;25.08;14.18;;;21.10;86.90;;;;;;5088436;28;20032;-66
2022/08/19 08:01:04;;;;;;;30.48;15.32;;;21.10;86.90;;;;;;5086629;28;20032;-65
2022/08/19 08:09:15;;;;;;;28.58;16.08;;;21.10;87.10;;;;;;5087810;28;20081;-66
2022/08/19 08:11:49;;;;;;;28.05;15.85;;;21.10;87.10;;;;;;5088638;28;20353;-66
2022/08/19 08:14:22;;;;;;;24.00;14.57;;;21.10;87.10;;;;;;5085171;28;20427;-65
2022/08/19 08:16:51;;;;;;;29.20;16.73;;;21.10;87.20;;;;;;5088222;28;20528;-64
2022/08/19 08:19:18;;;;;;;27.27;15.68;;;21.00;87.30;;;;;;5089210;28;20385;-64
2022/08/19 08:21:44;;;;;;;27.63;15.82;;;21.10;87.50;;;;;;5088935;28;20035;-64
2022/08/19 08:24:10;;;;;;;26.65;16.50;;;21.00;87.60;;;;;;5090276;28;20398;-65
2022/08/19 08:26:36;;;;;;;32.33;16.58;;;21.00;88.00;;;;;;5089757;28;20012;-65
2022/08/19 08:29:07;;;;;;;28.17;15.35;;;21.00;88.80;;;;;;5089157;28;20034;-65
2022/08/19 08:31:33;;;;;;;34.13;16.10;;;21.00;89.00;;;;;;5082766;28;20028;-64
2022/08/19 08:34:00;;;;;;;29.95;15.20;;;21.00;89.00;;;;;;5069043;28;20078;-65
2022/08/19 08:36:25;;;;;;;28.70;15.82;;;21.00;89.10;;;;;;5050830;28;20025;-65
2022/08/19 08:38:52;;;;;;;31.35;14.73;;;21.00;89.30;;;;;;5050028;28;20463;-66
2022/08/19 08:41:30;;;;;;;28.20;16.10;;;21.00;89.70;;;;;;5049652;28;20028;-65
2022/08/19 08:43:57;;;;;;;27.63;14.98;;;21.00;89.90;;;;;;5064616;28;20017;-64
2022/08/19 08:46:46;;;;;;;29.80;16.55;;;21.00;89.90;;;;;;5065820;28;20104;-65
2022/08/19 08:49:23;;;;;;;29.98;15.82;;;21.00;90.00;;;;;;5068428;28;20013;-66
2022/08/19 08:52:23;;;;;;;23.88;13.55;;;21.00;89.90;;;;;;5062602;28;20025;-66
2022/08/19 08:54:57;;;;;;;28.50;16.08;;;21.00;90.00;;;;;;5048352;28;20064;-66
2022/08/19 08:57:45;;;;;;;25.83;14.57;;;20.90;89.90;;;;;;5051486;28;20029;-65
2022/08/19 09:00:18;;;;;;;26.40;14.93;;;21.00;90.00;;;;;;5068008;28;20090;-66
2022/08/19 09:02:44;;;;;;;26.10;16.10;;;21.00;90.10;;;;;;5058986;28;20115;-66
2022/08/19 09:05:12;;;;;;;28.75;15.93;;;21.00;90.20;;;;;;5068883;28;20021;-65
2022/08/19 09:07:58;;;;;;;27.85;15.90;;;21.00;90.30;;;;;;5072749;28;20523;-67
2022/08/19 09:10:48;;;;;;;29.30;16.42;;;20.90;90.40;;;;;;5069305;28;20044;-66
2022/08/19 09:13:55;;;;;;;28.25;15.48;;;20.90;90.20;;;;;;5071810;28;20035;-66
2022/08/19 09:16:23;;;;;;;29.20;16.25;;;21.00;90.30;;;;;;5066965;28;20036;-66
2022/08/19 09:18:58;;;;;;;28.08;16.20;;;21.00;90.30;;;;;;5072188;28;20103;-65
2022/08/19 09:21:27;;;;;;;27.70;15.70;;;20.90;90.40;;;;;;5069145;28;20017;-65
2022/08/19 09:23:53;;;;;;;30.15;16.85;;;20.90;90.50;;;;;;5072166;28;20025;-64
2022/08/19 09:26:21;;;;;;;30.63;16.85;;;20.90;90.50;;;;;;5072466;28;20461;-64
2022/08/19 09:28:48;;;;;;;29.63;14.90;;;20.90;90.50;;;;;;5073127;28;20025;-64
2022/08/19 09:31:18;;;;;;;29.73;16.20;;;20.90;90.50;;;;;;5066211;28;21319;-63
2022/08/19 09:33:43;;;;;;;28.77;14.80;;;20.90;90.30;;;;;;5071589;28;20032;-64
2022/08/19 09:36:13;;;;;;;28.55;14.95;;;20.90;90.50;;;;;;5072666;28;20039;-64
2022/08/19 09:38:42;;;;;;;28.90;14.97;;;20.90;90.50;;;;;;5071947;28;20016;-64
2022/08/19 09:41:12;;;;;;;30.30;15.67;;;20.90;90.70;;;;;;5069060;28;20024;-64
2022/08/19 09:43:37;;;;;;;26.52;14.95;;;20.90;90.80;;;;;;5053549;28;20277;-65
2022/08/19 09:46:06;;;;;;;24.90;14.88;;;20.90;90.80;;;;;;5071407;28;20029;-65
2022/08/19 09:48:32;;;;;;;28.35;15.85;;;20.90;90.70;;;;;;5071746;28;20097;-65
2022/08/19 09:51:15;;;;;;;27.90;15.73;;;20.90;90.80;;;;;;5071551;28;20017;-64
2022/08/19 09:53:43;;;;;;;29.55;15.25;;;20.90;90.70;;;;;;5070579;28;20056;-64
2022/08/19 09:56:09;;;;;;;28.60;15.80;;;20.90;90.70;;;;;;5071376;28;20347;-65
2022/08/19 09:58:35;;;;;;;28.13;16.98;;;20.90;90.90;;;;;;5071966;28;20465;-64
2022/08/19 10:01:02;;;;;;;30.35;16.85;;;20.90;91.00;;;;;;5071404;28;20035;-64
2022/08/19 10:03:29;;;;;;;34.15;18.52;;;20.90;90.90;;;;;;5070924;28;20485;-64
2022/08/19 10:05:56;;;;;;;29.55;17.90;;;20.90;90.90;;;;;;5071761;28;20460;-65
2022/08/19 10:08:26;;;;;;;29.70;15.80;;;20.90;90.90;;;;;;5071859;28;20017;-65
2022/08/19 10:10:52;;;;;;;29.05;16.05;;;20.90;90.80;;;;;;5062904;28;20021;-66
2022/08/19 10:13:24;;;;;;;29.75;16.40;;;20.90;90.80;;;;;;5071544;28;20111;-66
2022/08/19 10:15:51;;;;;;;29.33;17.50;;;20.90;90.80;;;;;;5070654;28;20028;-65
2022/08/19 10:18:19;;;;;;;32.63;18.67;;;20.90;90.90;;;;;;5070169;28;20663;-65
2022/08/19 10:20:46;;;;;;;36.83;19.85;;;20.90;90.80;;;;;;5070661;28;20397;-65
2022/08/19 10:23:12;;;;;;;29.02;16.95;;;20.90;91.00;;;;;;5071366;28;20016;-65
2022/08/19 10:25:38;;;;;;;31.10;18.42;;;20.90;91.10;;;;;;5070934;28;20393;-66
2022/08/19 10:28:05;;;;;;;33.72;16.10;;;20.90;91.10;;;;;;5071336;28;20024;-65
2022/08/19 10:30:32;;;;;;;30.45;17.33;;;20.90;91.50;;;;;;5069937;28;20064;-65
2022/08/19 10:32:57;;;;;;;29.70;18.13;;;20.90;91.10;;;;;;5061945;28;20039;-65
2022/08/19 10:35:24;;;;;;;29.45;17.83;;;20.90;91.20;;;;;;5071020;28;20108;-65
2022/08/19 10:37:50;;;;;;;28.98;16.83;;;20.90;91.30;;;;;;5070376;28;20069;-65
2022/08/19 10:40:15;;;;;;;31.05;17.50;;;20.90;91.30;;;;;;5070769;28;20620;-65
2022/08/19 10:42:41;;;;;;;28.27;15.90;;;20.90;91.30;;;;;;5070660;28;20096;-63
2022/08/19 10:45:09;;;;;;;34.10;16.92;;;20.90;91.20;;;;;;5070765;28;20059;-64
2022/08/19 10:47:35;;;;;;;27.67;15.93;;;20.90;91.10;;;;;;5069510;28;20054;-64
2022/08/19 10:52:49;;;;;;;29.25;16.25;;;20.90;90.80;;;;;;5071006;28;20034;-64
2022/08/19 10:57:59;;;;;;;27.33;16.80;;;20.90;90.70;;;;;;5062800;28;20673;-64
2022/08/19 11:00:25;;;;;;;29.15;15.90;;;20.90;90.70;;;;;;5068665;28;20153;-64
2022/08/19 11:02:51;;;;;;;34.67;18.85;;;21.00;90.70;;;;;;5069232;28;20392;-64
2022/08/19 11:05:18;;;;;;;28.55;17.05;;;20.90;90.70;;;;;;5070635;28;20039;-64
2022/08/19 11:07:44;;;;;;;31.20;17.77;;;20.90;90.70;;;;;;5070092;28;20021;-64
2022/08/19 11:10:13;;;;;;;30.38;16.88;;;20.90;90.70;;;;;;5068282;28;20492;-64
2022/08/19 11:12:40;;;;;;;31.52;16.77;;;20.90;90.70;;;;;;5070167;28;20520;-64
2022/08/19 11:15:10;;;;;;;31.20;18.20;;;21.00;90.70;;;;;;5069829;28;20085;-64
2022/08/19 11:17:41;;;;;;;33.15;18.30;;;20.90;90.70;;;;;;5063409;28;20043;-64
2022/08/19 11:20:08;;;;;;;32.72;16.35;;;20.90;90.70;;;;;;5068473;28;20036;-64
2022/08/19 11:22:34;;;;;;;28.45;15.82;;;20.90;90.70;;;;;;5052514;28;20483;-64
2022/08/19 11:25:00;;;;;;;29.92;17.13;;;20.90;90.70;;;;;;5060920;28;20023;-64
2022/08/19 11:27:25;;;;;;;28.13;16.75;;;20.90;90.70;;;;;;5069985;28;20036;-63
2022/08/19 11:29:52;;;;;;;29.17;16.63;;;20.90;90.70;;;;;;5067863;28;20024;-64
2022/08/19 11:32:18;;;;;;;33.03;16.65;;;20.90;90.70;;;;;;5068368;28;20704;-63
2022/08/19 11:34:43;;;;;;;27.60;15.80;;;20.90;90.80;;;;;;5069920;28;20020;-63
2022/08/19 11:37:09;;;;;;;29.50;15.90;;;20.90;90.80;;;;;;5051899;28;20017;-63
2022/08/19 11:39:36;;;;;;;30.27;15.73;;;20.90;90.80;;;;;;5068034;28;20416;-64
2022/08/19 11:42:54;;;;;;;27.52;16.17;;;21.00;90.80;;;;;;5069393;28;20119;-63
2022/08/19 11:44:50;;;;;;;24.95;15.35;;;20.90;90.80;;;;;;5069426;28;20039;-63
2022/08/19 11:47:16;;;;;;;30.08;16.23;;;20.90;90.80;;;;;;5068448;28;20029;-64
2022/08/19 11:49:42;;;;;;;31.60;16.67;;;20.90;90.80;;;;;;5067977;28;20020;-63
2022/08/19 11:52:08;;;;;;;26.58;16.38;;;20.90;90.80;;;;;;5069998;28;20017;-63
2022/08/19 11:54:34;;;;;;;24.40;15.02;;;21.00;90.90;;;;;;5049272;28;20020;-64
2022/08/19 11:57:02;;;;;;;27.65;14.75;;;20.90;90.90;;;;;;5069241;28;20086;-63
2022/08/19 11:59:29;;;;;;;28.38;15.20;;;20.90;90.90;;;;;;5050266;28;20030;-63
2022/08/19 12:01:55;;;;;;;28.30;15.70;;;20.90;90.90;;;;;;5069162;28;20063;-63
2022/08/19 12:04:21;;;;;;;27.58;14.23;;;21.00;91.00;;;;;;5065026;28;20481;-63
2022/08/19 12:06:47;;;;;;;27.98;16.58;;;21.00;91.00;;;;;;5068968;28;20620;-64
2022/08/19 12:09:14;;;;;;;23.75;15.38;;;20.90;91.00;;;;;;5069164;28;20063;-63
2022/08/19 12:11:40;;;;;;;30.98;15.30;;;21.00;91.40;;;;;;5067411;28;20454;-64
2022/08/19 12:14:09;;;;;;;27.25;14.55;;;20.90;91.00;;;;;;5051310;28;20024;-64
2022/08/19 12:16:35;;;;;;;28.95;14.32;;;20.90;91.10;;;;;;5068792;28;20021;-63
2022/08/19 12:19:03;;;;;;;24.08;12.80;;;20.90;91.10;;;;;;5065401;28;20035;-63
2022/08/19 12:21:30;;;;;;;21.65;12.23;;;20.90;91.10;;;;;;5066919;28;20055;-64
2022/08/19 12:23:58;;;;;;;21.27;12.27;;;20.90;91.10;;;;;;5069380;28;20024;-64
2022/08/19 12:26:25;;;;;;;29.33;14.07;;;20.90;91.20;;;;;;5069108;28;20047;-63
2022/08/19 12:28:51;;;;;;;21.65;12.82;;;20.90;91.20;;;;;;5068886;28;20108;-64
2022/08/19 12:31:19;;;;;;;24.20;12.45;;;20.90;91.20;;;;;;5049557;28;20059;-63
2022/08/19 12:33:45;;;;;;;23.25;12.55;;;21.00;91.40;;;;;;5068365;28;20090;-63
2022/08/19 12:36:12;;;;;;;16.65;10.18;;;20.90;91.20;;;;;;5062997;28;20028;-64
2022/08/19 12:38:39;;;;;;;16.98;10.50;;;20.90;91.20;;;;;;5072857;28;20020;-63
2022/08/19 12:41:06;;;;;;;16.67;9.93;;;20.90;91.30;;;;;;5071760;28;20490;-63
2022/08/19 12:43:34;;;;;;;13.18;9.60;;;21.00;91.30;;;;;;5072956;28;20027;-63
2022/08/19 12:46:01;;;;;;;15.43;9.45;;;20.90;91.30;;;;;;5072981;28;20021;-63
2022/08/19 12:48:27;;;;;;;16.05;9.95;;;20.90;91.30;;;;;;5071417;28;20086;-64
2022/08/19 12:50:53;;;;;;;14.82;9.07;;;20.90;91.30;;;;;;5071453;28;20216;-64
2022/08/19 12:53:19;;;;;;;17.42;8.93;;;21.00;91.40;;;;;;5073228;28;20086;-63
2022/08/19 12:55:45;;;;;;;17.52;9.73;;;21.00;91.40;;;;;;5071228;28;20395;-64
2022/08/19 12:58:12;;;;;;;14.13;8.85;;;21.00;91.40;;;;;;5072459;28;20013;-63
2022/08/19 13:00:38;;;;;;;16.30;8.48;;;21.00;91.40;;;;;;5071016;28;20036;-63
2022/08/19 13:03:03;;;;;;;16.20;9.10;;;21.00;91.40;;;;;;5069514;28;20089;-63
2022/08/19 13:05:33;;;;;;;14.35;8.68;;;21.00;91.50;;;;;;5066862;28;20377;-63
2022/08/19 13:07:59;;;;;;;15.70;9.27;;;21.00;91.50;;;;;;5072072;28;20028;-64
2022/08/19 13:10:28;;;;;;;14.98;8.93;;;21.00;91.40;;;;;;5071165;28;20028;-64
2022/08/19 13:12:55;;;;;;;12.43;8.57;;;21.00;91.40;;;;;;5071840;28;20036;-62
2022/08/19 13:15:22;;;;;;;11.50;7.55;;;21.00;91.50;;;;;;5071628;28;20024;-63
2022/08/19 13:17:50;;;;;;;11.90;7.95;;;21.00;91.50;;;;;;5071523;28;20025;-62
2022/08/19 13:20:19;;;;;;;13.18;7.38;;;21.00;91.50;;;;;;5069537;28;20564;-62
2022/08/19 13:22:46;;;;;;;9.55;6.28;;;20.90;91.60;;;;;;5071932;28;20024;-62
2022/08/19 13:25:12;;;;;;;9.88;6.68;;;20.90;91.70;;;;;;5072495;28;20477;-63
2022/08/19 13:27:39;;;;;;;12.07;7.57;;;20.90;91.80;;;;;;5069532;28;20042;-62
2022/08/19 13:35:35;;;;;;;8.23;5.70;;;21.00;92.00;;;;;;5066386;28;20046;-64
2022/08/19 13:38:04;;;;;;;8.02;6.18;;;20.90;92.10;;;;;;5069986;28;20025;-62
2022/08/19 13:40:33;;;;;;;12.00;4.85;;;20.90;92.40;;;;;;5070546;28;20056;-62
2022/08/19 13:43:00;;;;;;;9.32;4.90;;;20.90;92.50;;;;;;5072247;28;20026;-63
2022/08/19 13:45:28;;;;;;;9.70;4.78;;;20.90;92.30;;;;;;5071710;28;20025;-63
2022/08/19 13:47:56;;;;;;;7.07;4.40;;;20.90;92.50;;;;;;5070867;28;20024;-62
2022/08/19 13:50:28;;;;;;;7.63;5.10;;;20.90;92.40;;;;;;5062684;28;20016;-62
2022/08/19 13:52:54;;;;;;;7.03;5.28;;;20.90;92.40;;;;;;5071760;28;20021;-62